< < Back
Terminal Aerodrome Forecast


Current Version              Previous Versions:   1  2  3  4  5  6  7  8  9  

Terminal Aerodrome Forecast

210
FTUS42 KCHS 041121
TAFSAV
TAF
KSAV 041121Z 0412/0512 VRB04KT P6SM SCT030 SCT250
     FM041800 11007KT P6SM BKN060
     FM050000 17003KT P6SM SCT040 SCT250=



Latest METAR

855
SAUS80 KWBC 051000 RRA
MTRSAV
METAR KSAV 050953Z 03003KT 10SM BKN014 22/21 A3001 RMK AO2 SLP162 FIRST
AUGMENTED OBSERVATION T02220206 $


USA.gov is the U.S. government's official web portal to all federal, state and local government web resources and services.